Airfield :
LOGIN :

Register | Disclaimer

   EN    FR    IT 

 










Legend :    VFR   Marginal VFR   IFR   Intensive IFR   Very Intensive IFR
Visi :
Ceiling :
>= 8 km
>= 3000ft
5 to 8 km
1000 to 3000 ft
1500m to 5 km
500 to 1000 ft
800 to 1500m
200 to 500 ft
< 800m
< 200 ft
Symbols :   Thunderstorms  Fog  Heavy snow  Heavy precipitations  Wind > 20 kt
SIGMETs :     Misc.  Thunderstorms  Icing  Turbulence  Mountain Waves  Volcanic Ashes







- Airport Elevation : 405 ft
- IATA code : ODH


EGVO - RAF Odiham

CURRENT METAR :
  • 222350Z 23011KT 9999 OVC030 08/05 Q1019 BLU

EXPIRED METARs :
  • 222250Z 23009KT 9999 OVC026 08/04 Q1018 BLU
  • 222150Z 24010KT 9999 BKN026 08/04 Q1019 BLU

TAF TAF EGVO
Valid from the 22 at 21:00 until the 23 at 09:00 UTC


221954Z 2221/2309 23008KT 9999 BKN030
BECMG 2304/2307 BKN012
PROB30
TEMPO 2306/2309 5000 RA SCT006
No reported NOTAMs for that airfield.
1 SIGMET reported for the London FIR (EGTT) :
 
Severe mountain waves
EGTT SIGMET 03 VALID 222300/230300 EGRR
EGTT LONDON FIR SEV MTW FCST WI N5500 W00000 - N5200 W00015 - N5200 W00315 - N5500 W00300 - N5500 W00000 FL040/250 STNR NC=



MET'MAP, your aeronautical weather chart ! - Copyright ORBIFLY December 2007 - Disclaimer

ORBIFLY MET'MAP TEAM :

Programming & Development : Alexandra Zaïnal
Concept & Development : Baudouin d'Aumeries
Co-Development & Prog : Marc-Olivier Méhu
Technical & hardware support : Manuel Goepfert

Contact : metmap@orbifly.com




SOURCES & CREDITS :

   NOAA